sensor_id;sensor_type;location;lat;lon;timestamp;temperature;humidity
54126;DHT22;40360;52.992;6.796;2022-12-07T00:01:17;3.30;99.90
54126;DHT22;40360;52.992;6.796;2022-12-07T00:03:47;3.30;99.90
54126;DHT22;40360;52.992;6.796;2022-12-07T00:06:16;3.20;99.90
54126;DHT22;40360;52.992;6.796;2022-12-07T00:08:42;3.20;99.90
54126;DHT22;40360;52.992;6.796;2022-12-07T00:11:14;3.20;99.90
54126;DHT22;40360;52.992;6.796;2022-12-07T00:13:41;3.20;99.90
54126;DHT22;40360;52.992;6.796;2022-12-07T00:16:09;3.20;99.90
54126;DHT22;40360;52.992;6.796;2022-12-07T00:18:36;3.30;99.90
54126;DHT22;40360;52.992;6.796;2022-12-07T00:21:10;3.40;99.90
54126;DHT22;40360;52.992;6.796;2022-12-07T00:23:36;3.40;99.90
54126;DHT22;40360;52.992;6.796;2022-12-07T00:26:13;3.40;99.90
54126;DHT22;40360;52.992;6.796;2022-12-07T00:28:39;3.40;99.90
54126;DHT22;40360;52.992;6.796;2022-12-07T00:31:10;3.50;99.90
54126;DHT22;40360;52.992;6.796;2022-12-07T00:33:37;3.50;99.90
54126;DHT22;40360;52.992;6.796;2022-12-07T00:36:06;3.50;99.90
54126;DHT22;40360;52.992;6.796;2022-12-07T00:38:33;3.40;99.90
54126;DHT22;40360;52.992;6.796;2022-12-07T00:41:02;3.40;99.90
54126;DHT22;40360;52.992;6.796;2022-12-07T00:43:28;3.40;99.90
54126;DHT22;40360;52.992;6.796;2022-12-07T00:45:54;3.50;99.90
54126;DHT22;40360;52.992;6.796;2022-12-07T00:48:21;3.40;99.90
54126;DHT22;40360;52.992;6.796;2022-12-07T00:50:48;3.40;99.90
54126;DHT22;40360;52.992;6.796;2022-12-07T00:53:14;3.40;99.90
54126;DHT22;40360;52.992;6.796;2022-12-07T00:55:39;3.30;99.90
54126;DHT22;40360;52.992;6.796;2022-12-07T00:58:05;3.30;99.90
54126;DHT22;40360;52.992;6.796;2022-12-07T01:00:31;3.30;99.90
54126;DHT22;40360;52.992;6.796;2022-12-07T01:02:57;3.20;99.90
54126;DHT22;40360;52.992;6.796;2022-12-07T01:05:22;3.20;99.90
54126;DHT22;40360;52.992;6.796;2022-12-07T01:07:48;3.20;99.90
54126;DHT22;40360;52.992;6.796;2022-12-07T01:10:14;3.10;99.90
54126;DHT22;40360;52.992;6.796;2022-12-07T01:12:40;3.30;99.90
54126;DHT22;40360;52.992;6.796;2022-12-07T01:15:07;3.20;99.90
54126;DHT22;40360;52.992;6.796;2022-12-07T01:17:33;3.20;99.90
54126;DHT22;40360;52.992;6.796;2022-12-07T01:19:59;3.20;99.90
54126;DHT22;40360;52.992;6.796;2022-12-07T01:22:24;3.20;99.90
54126;DHT22;40360;52.992;6.796;2022-12-07T01:24:50;3.20;99.90
54126;DHT22;40360;52.992;6.796;2022-12-07T01:27:16;3.20;99.90
54126;DHT22;40360;52.992;6.796;2022-12-07T01:29:41;3.20;99.90
54126;DHT22;40360;52.992;6.796;2022-12-07T01:32:07;3.20;99.90
54126;DHT22;40360;52.992;6.796;2022-12-07T01:34:33;3.30;99.90
54126;DHT22;40360;52.992;6.796;2022-12-07T01:36:58;3.30;99.90
54126;DHT22;40360;52.992;6.796;2022-12-07T01:39:25;3.30;99.90
54126;DHT22;40360;52.992;6.796;2022-12-07T01:41:51;3.20;99.90
54126;DHT22;40360;52.992;6.796;2022-12-07T01:44:22;3.20;99.90
54126;DHT22;40360;52.992;6.796;2022-12-07T01:46:53;3.30;99.90
54126;DHT22;40360;52.992;6.796;2022-12-07T01:49:27;3.20;99.90
54126;DHT22;40360;52.992;6.796;2022-12-07T01:52:17;3.20;99.90
54126;DHT22;40360;52.992;6.796;2022-12-07T01:54:44;3.20;99.90
54126;DHT22;40360;52.992;6.796;2022-12-07T01:57:12;3.20;99.90
54126;DHT22;40360;52.992;6.796;2022-12-07T01:59:39;3.10;99.90
54126;DHT22;40360;52.992;6.796;2022-12-07T02:02:12;3.20;99.90
54126;DHT22;40360;52.992;6.796;2022-12-07T02:04:39;3.10;99.90
54126;DHT22;40360;52.992;6.796;2022-12-07T02:07:05;3.10;99.90
54126;DHT22;40360;52.992;6.796;2022-12-07T02:09:31;3.10;99.90
54126;DHT22;40360;52.992;6.796;2022-12-07T02:11:56;3.10;99.90
54126;DHT22;40360;52.992;6.796;2022-12-07T02:14:22;3.00;99.90
54126;DHT22;40360;52.992;6.796;2022-12-07T02:27:50;3.40;99.90
54126;DHT22;40360;52.992;6.796;2022-12-07T02:30:22;3.40;99.90
54126;DHT22;40360;52.992;6.796;2022-12-07T02:33:04;3.40;99.90
54126;DHT22;40360;52.992;6.796;2022-12-07T02:35:36;3.40;99.90
54126;DHT22;40360;52.992;6.796;2022-12-07T02:38:14;3.50;99.90
54126;DHT22;40360;52.992;6.796;2022-12-07T02:41:47;3.40;99.90
54126;DHT22;40360;52.992;6.796;2022-12-07T02:43:50;3.40;99.90
54126;DHT22;40360;52.992;6.796;2022-12-07T02:46:21;3.30;99.90
54126;DHT22;40360;52.992;6.796;2022-12-07T02:48:47;3.20;99.90
54126;DHT22;40360;52.992;6.796;2022-12-07T02:51:14;3.20;99.90
54126;DHT22;40360;52.992;6.796;2022-12-07T02:53:43;3.10;99.90
54126;DHT22;40360;52.992;6.796;2022-12-07T02:56:30;3.10;99.90
54126;DHT22;40360;52.992;6.796;2022-12-07T03:04:20;3.30;99.90
54126;DHT22;40360;52.992;6.796;2022-12-07T03:06:56;3.30;99.90
54126;DHT22;40360;52.992;6.796;2022-12-07T03:09:39;3.30;99.90
54126;DHT22;40360;52.992;6.796;2022-12-07T03:12:20;3.30;99.90
54126;DHT22;40360;52.992;6.796;2022-12-07T03:15:00;3.40;99.90
54126;DHT22;40360;52.992;6.796;2022-12-07T03:17:29;3.50;99.90
54126;DHT22;40360;52.992;6.796;2022-12-07T03:19:58;3.60;99.90
54126;DHT22;40360;52.992;6.796;2022-12-07T03:22:28;3.60;99.90
54126;DHT22;40360;52.992;6.796;2022-12-07T03:24:58;3.60;99.90
54126;DHT22;40360;52.992;6.796;2022-12-07T03:27:31;3.60;99.90
54126;DHT22;40360;52.992;6.796;2022-12-07T03:32:39;3.60;99.90
54126;DHT22;40360;52.992;6.796;2022-12-07T03:35:14;3.60;99.90
54126;DHT22;40360;52.992;6.796;2022-12-07T03:40:39;3.70;99.90
54126;DHT22;40360;52.992;6.796;2022-12-07T03:43:06;3.70;99.90
54126;DHT22;40360;52.992;6.796;2022-12-07T03:45:41;3.60;99.90
54126;DHT22;40360;52.992;6.796;2022-12-07T03:48:32;3.60;99.90
54126;DHT22;40360;52.992;6.796;2022-12-07T03:53:40;3.50;99.90
54126;DHT22;40360;52.992;6.796;2022-12-07T03:56:09;3.50;99.90
54126;DHT22;40360;52.992;6.796;2022-12-07T03:58:35;3.50;99.90
54126;DHT22;40360;52.992;6.796;2022-12-07T04:01:01;3.60;99.90
54126;DHT22;40360;52.992;6.796;2022-12-07T04:03:27;3.60;99.90
54126;DHT22;40360;52.992;6.796;2022-12-07T04:05:53;3.60;99.90
54126;DHT22;40360;52.992;6.796;2022-12-07T04:08:19;3.60;99.90
54126;DHT22;40360;52.992;6.796;2022-12-07T04:10:45;3.60;99.90
54126;DHT22;40360;52.992;6.796;2022-12-07T04:13:10;3.60;99.90
54126;DHT22;40360;52.992;6.796;2022-12-07T04:15:36;3.60;99.90
54126;DHT22;40360;52.992;6.796;2022-12-07T04:18:01;3.60;99.90
54126;DHT22;40360;52.992;6.796;2022-12-07T04:20:27;3.60;99.90
54126;DHT22;40360;52.992;6.796;2022-12-07T04:22:53;3.60;99.90
54126;DHT22;40360;52.992;6.796;2022-12-07T04:25:18;3.60;99.90
54126;DHT22;40360;52.992;6.796;2022-12-07T04:27:44;3.60;99.90
54126;DHT22;40360;52.992;6.796;2022-12-07T04:30:10;3.60;99.90
54126;DHT22;40360;52.992;6.796;2022-12-07T04:32:35;3.60;99.90
54126;DHT22;40360;52.992;6.796;2022-12-07T04:35:03;3.60;99.90
54126;DHT22;40360;52.992;6.796;2022-12-07T04:37:29;3.60;99.90
54126;DHT22;40360;52.992;6.796;2022-12-07T04:39:54;3.50;99.90
54126;DHT22;40360;52.992;6.796;2022-12-07T04:42:20;3.50;99.90
54126;DHT22;40360;52.992;6.796;2022-12-07T04:44:45;3.40;99.90
54126;DHT22;40360;52.992;6.796;2022-12-07T04:47:11;3.30;99.90
54126;DHT22;40360;52.992;6.796;2022-12-07T04:49:37;3.30;99.90
54126;DHT22;40360;52.992;6.796;2022-12-07T04:52:03;3.20;99.90
54126;DHT22;40360;52.992;6.796;2022-12-07T04:54:28;3.10;99.90
54126;DHT22;40360;52.992;6.796;2022-12-07T04:56:54;3.00;99.90
54126;DHT22;40360;52.992;6.796;2022-12-07T04:59:19;3.00;99.90
54126;DHT22;40360;52.992;6.796;2022-12-07T05:01:45;2.90;99.90
54126;DHT22;40360;52.992;6.796;2022-12-07T05:20:42;2.90;99.90
54126;DHT22;40360;52.992;6.796;2022-12-07T05:23:07;2.90;99.90
54126;DHT22;40360;52.992;6.796;2022-12-07T05:25:33;3.00;99.90
54126;DHT22;40360;52.992;6.796;2022-12-07T05:27:59;3.00;99.90
54126;DHT22;40360;52.992;6.796;2022-12-07T05:30:26;3.10;99.90
54126;DHT22;40360;52.992;6.796;2022-12-07T05:32:51;3.10;99.90
54126;DHT22;40360;52.992;6.796;2022-12-07T05:35:18;3.10;99.90
54126;DHT22;40360;52.992;6.796;2022-12-07T05:37:44;3.10;99.90
54126;DHT22;40360;52.992;6.796;2022-12-07T05:40:11;3.00;99.90
54126;DHT22;40360;52.992;6.796;2022-12-07T05:42:37;3.00;99.90
54126;DHT22;40360;52.992;6.796;2022-12-07T05:45:03;2.90;99.90
54126;DHT22;40360;52.992;6.796;2022-12-07T05:47:29;2.80;99.90
54126;DHT22;40360;52.992;6.796;2022-12-07T05:49:55;2.70;99.90
54126;DHT22;40360;52.992;6.796;2022-12-07T05:52:21;2.60;99.90
54126;DHT22;40360;52.992;6.796;2022-12-07T05:54:46;2.60;99.90
54126;DHT22;40360;52.992;6.796;2022-12-07T05:57:12;2.50;99.90
54126;DHT22;40360;52.992;6.796;2022-12-07T05:59:38;2.40;99.90
54126;DHT22;40360;52.992;6.796;2022-12-07T06:02:12;2.40;99.90
54126;DHT22;40360;52.992;6.796;2022-12-07T06:04:43;2.40;99.90
54126;DHT22;40360;52.992;6.796;2022-12-07T06:07:11;2.40;99.90
54126;DHT22;40360;52.992;6.796;2022-12-07T06:09:37;2.50;99.90
54126;DHT22;40360;52.992;6.796;2022-12-07T06:12:03;2.40;99.90
54126;DHT22;40360;52.992;6.796;2022-12-07T06:14:48;2.40;99.90
54126;DHT22;40360;52.992;6.796;2022-12-07T06:17:14;2.40;99.90
54126;DHT22;40360;52.992;6.796;2022-12-07T06:19:40;2.40;99.90
54126;DHT22;40360;52.992;6.796;2022-12-07T06:22:06;2.40;99.90
54126;DHT22;40360;52.992;6.796;2022-12-07T06:24:33;2.40;99.90
54126;DHT22;40360;52.992;6.796;2022-12-07T06:26:59;2.40;99.90
54126;DHT22;40360;52.992;6.796;2022-12-07T06:29:25;2.40;99.90
54126;DHT22;40360;52.992;6.796;2022-12-07T06:31:50;2.40;99.90
54126;DHT22;40360;52.992;6.796;2022-12-07T06:34:18;2.40;99.90
54126;DHT22;40360;52.992;6.796;2022-12-07T06:36:44;2.40;99.90
54126;DHT22;40360;52.992;6.796;2022-12-07T06:39:11;2.40;99.90
54126;DHT22;40360;52.992;6.796;2022-12-07T06:41:37;2.40;99.90
54126;DHT22;40360;52.992;6.796;2022-12-07T06:44:04;2.40;99.90
54126;DHT22;40360;52.992;6.796;2022-12-07T06:46:30;2.40;99.90
54126;DHT22;40360;52.992;6.796;2022-12-07T06:48:56;2.40;99.90
54126;DHT22;40360;52.992;6.796;2022-12-07T06:51:23;2.40;99.90
54126;DHT22;40360;52.992;6.796;2022-12-07T06:53:49;2.50;99.90
54126;DHT22;40360;52.992;6.796;2022-12-07T06:56:14;2.50;99.90
54126;DHT22;40360;52.992;6.796;2022-12-07T06:58:40;2.60;99.90
54126;DHT22;40360;52.992;6.796;2022-12-07T07:01:24;2.60;99.90
54126;DHT22;40360;52.992;6.796;2022-12-07T07:03:49;2.70;99.90
54126;DHT22;40360;52.992;6.796;2022-12-07T07:06:15;2.70;99.90
54126;DHT22;40360;52.992;6.796;2022-12-07T07:08:41;2.80;99.90
54126;DHT22;40360;52.992;6.796;2022-12-07T07:11:08;2.80;99.90
54126;DHT22;40360;52.992;6.796;2022-12-07T07:13:34;2.80;99.90
54126;DHT22;40360;52.992;6.796;2022-12-07T07:16:00;2.80;99.90
54126;DHT22;40360;52.992;6.796;2022-12-07T07:18:26;2.70;99.90
54126;DHT22;40360;52.992;6.796;2022-12-07T07:20:52;2.80;99.90
54126;DHT22;40360;52.992;6.796;2022-12-07T07:23:19;2.70;99.90
54126;DHT22;40360;52.992;6.796;2022-12-07T07:25:45;2.70;99.90
54126;DHT22;40360;52.992;6.796;2022-12-07T07:28:11;2.60;99.90
54126;DHT22;40360;52.992;6.796;2022-12-07T07:30:36;2.60;99.90
54126;DHT22;40360;52.992;6.796;2022-12-07T07:33:03;2.50;99.90
54126;DHT22;40360;52.992;6.796;2022-12-07T07:35:31;2.50;99.90
54126;DHT22;40360;52.992;6.796;2022-12-07T07:37:57;2.50;99.90
54126;DHT22;40360;52.992;6.796;2022-12-07T07:40:23;2.50;99.90
54126;DHT22;40360;52.992;6.796;2022-12-07T07:42:50;2.50;99.90
54126;DHT22;40360;52.992;6.796;2022-12-07T07:45:16;2.50;99.90
54126;DHT22;40360;52.992;6.796;2022-12-07T07:47:42;2.60;99.90
54126;DHT22;40360;52.992;6.796;2022-12-07T07:50:08;2.70;99.90
54126;DHT22;40360;52.992;6.796;2022-12-07T07:52:34;2.80;99.90
54126;DHT22;40360;52.992;6.796;2022-12-07T07:54:59;2.80;99.90
54126;DHT22;40360;52.992;6.796;2022-12-07T07:57:25;2.90;99.90
54126;DHT22;40360;52.992;6.796;2022-12-07T07:59:50;2.90;99.90
54126;DHT22;40360;52.992;6.796;2022-12-07T08:02:18;2.90;99.90
54126;DHT22;40360;52.992;6.796;2022-12-07T08:04:44;2.90;99.90
54126;DHT22;40360;52.992;6.796;2022-12-07T08:07:11;2.90;99.90
54126;DHT22;40360;52.992;6.796;2022-12-07T08:09:37;3.00;99.90
54126;DHT22;40360;52.992;6.796;2022-12-07T08:12:03;2.90;99.90
54126;DHT22;40360;52.992;6.796;2022-12-07T08:14:29;2.90;99.90
54126;DHT22;40360;52.992;6.796;2022-12-07T08:16:55;2.90;99.90
54126;DHT22;40360;52.992;6.796;2022-12-07T08:19:20;2.80;99.90
54126;DHT22;40360;52.992;6.796;2022-12-07T08:21:46;2.80;99.90
54126;DHT22;40360;52.992;6.796;2022-12-07T08:24:12;2.80;99.90
54126;DHT22;40360;52.992;6.796;2022-12-07T08:26:37;2.70;99.90
54126;DHT22;40360;52.992;6.796;2022-12-07T08:29:03;2.70;99.90
54126;DHT22;40360;52.992;6.796;2022-12-07T08:31:29;2.70;99.90
54126;DHT22;40360;52.992;6.796;2022-12-07T08:33:55;2.70;99.90
54126;DHT22;40360;52.992;6.796;2022-12-07T08:36:21;2.60;99.90
54126;DHT22;40360;52.992;6.796;2022-12-07T08:38:48;2.70;99.90
54126;DHT22;40360;52.992;6.796;2022-12-07T08:41:15;2.60;99.90
54126;DHT22;40360;52.992;6.796;2022-12-07T08:43:40;2.70;99.90
54126;DHT22;40360;52.992;6.796;2022-12-07T08:46:11;2.70;99.90
54126;DHT22;40360;52.992;6.796;2022-12-07T08:48:41;2.70;99.90
54126;DHT22;40360;52.992;6.796;2022-12-07T08:51:07;2.70;99.90
54126;DHT22;40360;52.992;6.796;2022-12-07T08:53:34;2.80;99.90
54126;DHT22;40360;52.992;6.796;2022-12-07T08:56:00;2.90;99.90
54126;DHT22;40360;52.992;6.796;2022-12-07T08:58:26;2.90;99.90
54126;DHT22;40360;52.992;6.796;2022-12-07T09:00:52;3.00;99.90
54126;DHT22;40360;52.992;6.796;2022-12-07T09:03:18;3.10;99.90
54126;DHT22;40360;52.992;6.796;2022-12-07T09:05:44;3.10;99.90
54126;DHT22;40360;52.992;6.796;2022-12-07T09:08:09;3.10;99.90
54126;DHT22;40360;52.992;6.796;2022-12-07T09:10:35;3.10;99.90
54126;DHT22;40360;52.992;6.796;2022-12-07T09:13:01;3.10;99.90
54126;DHT22;40360;52.992;6.796;2022-12-07T09:15:28;3.10;99.90
54126;DHT22;40360;52.992;6.796;2022-12-07T09:17:54;3.10;99.90
54126;DHT22;40360;52.992;6.796;2022-12-07T09:20:19;3.20;99.90
54126;DHT22;40360;52.992;6.796;2022-12-07T09:22:45;3.20;99.90
54126;DHT22;40360;52.992;6.796;2022-12-07T09:25:11;3.30;99.90
54126;DHT22;40360;52.992;6.796;2022-12-07T09:27:37;3.30;99.90
54126;DHT22;40360;52.992;6.796;2022-12-07T09:30:03;3.30;99.90
54126;DHT22;40360;52.992;6.796;2022-12-07T09:32:29;3.30;99.90
54126;DHT22;40360;52.992;6.796;2022-12-07T09:34:55;3.30;99.90
54126;DHT22;40360;52.992;6.796;2022-12-07T09:37:21;3.40;99.90
54126;DHT22;40360;52.992;6.796;2022-12-07T09:39:46;3.40;99.90
54126;DHT22;40360;52.992;6.796;2022-12-07T09:42:34;3.50;99.90
54126;DHT22;40360;52.992;6.796;2022-12-07T09:45:00;3.50;99.90
54126;DHT22;40360;52.992;6.796;2022-12-07T09:47:28;3.60;99.90
54126;DHT22;40360;52.992;6.796;2022-12-07T09:50:07;3.70;99.90
54126;DHT22;40360;52.992;6.796;2022-12-07T09:52:37;3.90;99.90
54126;DHT22;40360;52.992;6.796;2022-12-07T09:55:19;4.00;99.90
54126;DHT22;40360;52.992;6.796;2022-12-07T09:57:46;4.20;99.90
54126;DHT22;40360;52.992;6.796;2022-12-07T10:00:17;4.30;99.90
54126;DHT22;40360;52.992;6.796;2022-12-07T10:02:50;4.40;99.90
54126;DHT22;40360;52.992;6.796;2022-12-07T10:05:41;4.40;99.90
54126;DHT22;40360;52.992;6.796;2022-12-07T10:08:04;4.40;99.90
54126;DHT22;40360;52.992;6.796;2022-12-07T10:10:33;4.40;99.90
54126;DHT22;40360;52.992;6.796;2022-12-07T10:13:07;4.40;99.90
54126;DHT22;40360;52.992;6.796;2022-12-07T10:18:38;4.40;99.90
54126;DHT22;40360;52.992;6.796;2022-12-07T10:21:12;4.40;99.90
54126;DHT22;40360;52.992;6.796;2022-12-07T10:23:41;4.40;99.90
54126;DHT22;40360;52.992;6.796;2022-12-07T10:29:19;4.50;99.90
54126;DHT22;40360;52.992;6.796;2022-12-07T10:31:48;4.50;99.90
54126;DHT22;40360;52.992;6.796;2022-12-07T10:34:26;4.50;99.90
54126;DHT22;40360;52.992;6.796;2022-12-07T10:36:53;4.60;99.90
54126;DHT22;40360;52.992;6.796;2022-12-07T10:39:50;4.60;99.90
54126;DHT22;40360;52.992;6.796;2022-12-07T10:44:41;4.60;99.90
54126;DHT22;40360;52.992;6.796;2022-12-07T10:50:19;4.60;99.90
54126;DHT22;40360;52.992;6.796;2022-12-07T10:59:13;4.70;99.90
54126;DHT22;40360;52.992;6.796;2022-12-07T11:02:00;4.80;99.90
54126;DHT22;40360;52.992;6.796;2022-12-07T11:05:05;4.90;99.90
54126;DHT22;40360;52.992;6.796;2022-12-07T11:10:19;5.00;99.90
54126;DHT22;40360;52.992;6.796;2022-12-07T11:16:37;5.00;99.90
54126;DHT22;40360;52.992;6.796;2022-12-07T11:22:16;5.00;99.90
54126;DHT22;40360;52.992;6.796;2022-12-07T11:27:57;5.00;99.90
54126;DHT22;40360;52.992;6.796;2022-12-07T11:36:02;5.00;99.90
54126;DHT22;40360;52.992;6.796;2022-12-07T11:38:38;5.00;99.90
54126;DHT22;40360;52.992;6.796;2022-12-07T11:41:08;4.90;99.90
54126;DHT22;40360;52.992;6.796;2022-12-07T11:44:07;5.00;99.90
54126;DHT22;40360;52.992;6.796;2022-12-07T11:49:23;4.80;99.90
54126;DHT22;40360;52.992;6.796;2022-12-07T11:51:55;4.70;99.90
54126;DHT22;40360;52.992;6.796;2022-12-07T11:54:29;4.50;99.90
54126;DHT22;40360;52.992;6.796;2022-12-07T11:57:02;4.40;99.90
54126;DHT22;40360;52.992;6.796;2022-12-07T11:59:45;4.30;99.90
54126;DHT22;40360;52.992;6.796;2022-12-07T12:02:49;4.30;99.90
54126;DHT22;40360;52.992;6.796;2022-12-07T12:05:21;4.30;99.90
54126;DHT22;40360;52.992;6.796;2022-12-07T12:07:59;4.40;99.90
54126;DHT22;40360;52.992;6.796;2022-12-07T12:10:55;4.30;99.90
54126;DHT22;40360;52.992;6.796;2022-12-07T12:13:35;4.40;99.90
54126;DHT22;40360;52.992;6.796;2022-12-07T12:16:19;4.50;99.90
54126;DHT22;40360;52.992;6.796;2022-12-07T12:19:04;4.50;99.90
54126;DHT22;40360;52.992;6.796;2022-12-07T12:21:37;4.60;99.90
54126;DHT22;40360;52.992;6.796;2022-12-07T12:24:11;4.70;99.90
54126;DHT22;40360;52.992;6.796;2022-12-07T12:26:38;4.70;99.90
54126;DHT22;40360;52.992;6.796;2022-12-07T12:29:31;4.80;99.90
54126;DHT22;40360;52.992;6.796;2022-12-07T12:32:20;4.80;99.90
54126;DHT22;40360;52.992;6.796;2022-12-07T12:37:46;4.90;99.90
54126;DHT22;40360;52.992;6.796;2022-12-07T12:40:39;4.90;99.90
54126;DHT22;40360;52.992;6.796;2022-12-07T12:46:38;5.00;99.90
54126;DHT22;40360;52.992;6.796;2022-12-07T12:51:43;4.90;99.90
54126;DHT22;40360;52.992;6.796;2022-12-07T13:01:54;4.90;99.90
54126;DHT22;40360;52.992;6.796;2022-12-07T13:04:27;5.00;99.90
54126;DHT22;40360;52.992;6.796;2022-12-07T13:06:53;5.00;99.90
54126;DHT22;40360;52.992;6.796;2022-12-07T13:09:30;5.00;99.90
54126;DHT22;40360;52.992;6.796;2022-12-07T13:12:05;5.10;99.90
54126;DHT22;40360;52.992;6.796;2022-12-07T13:17:11;5.10;99.90
54126;DHT22;40360;52.992;6.796;2022-12-07T13:24:57;5.10;99.90
54126;DHT22;40360;52.992;6.796;2022-12-07T13:27:25;5.10;99.90
54126;DHT22;40360;52.992;6.796;2022-12-07T13:29:52;5.00;99.90
54126;DHT22;40360;52.992;6.796;2022-12-07T13:32:25;4.90;99.90
54126;DHT22;40360;52.992;6.796;2022-12-07T13:34:54;4.90;99.90
54126;DHT22;40360;52.992;6.796;2022-12-07T13:37:31;4.80;99.90
54126;DHT22;40360;52.992;6.796;2022-12-07T13:40:00;4.80;99.90
54126;DHT22;40360;52.992;6.796;2022-12-07T13:42:34;4.80;99.90
54126;DHT22;40360;52.992;6.796;2022-12-07T13:45:17;4.80;99.90
54126;DHT22;40360;52.992;6.796;2022-12-07T13:47:53;4.70;99.90
54126;DHT22;40360;52.992;6.796;2022-12-07T13:52:55;4.60;99.90
54126;DHT22;40360;52.992;6.796;2022-12-07T13:55:21;4.50;99.90
54126;DHT22;40360;52.992;6.796;2022-12-07T13:57:52;4.50;99.90
54126;DHT22;40360;52.992;6.796;2022-12-07T14:00:20;4.50;99.90
54126;DHT22;40360;52.992;6.796;2022-12-07T14:03:00;4.40;99.90
54126;DHT22;40360;52.992;6.796;2022-12-07T14:05:30;4.40;99.90
54126;DHT22;40360;52.992;6.796;2022-12-07T14:08:20;4.30;99.90
54126;DHT22;40360;52.992;6.796;2022-12-07T14:16:00;4.20;99.90
54126;DHT22;40360;52.992;6.796;2022-12-07T14:23:30;4.10;99.90
54126;DHT22;40360;52.992;6.796;2022-12-07T14:26:06;4.10;99.90
54126;DHT22;40360;52.992;6.796;2022-12-07T14:28:35;4.10;99.90
54126;DHT22;40360;52.992;6.796;2022-12-07T14:31:02;4.10;99.90
54126;DHT22;40360;52.992;6.796;2022-12-07T14:33:28;4.10;99.90
54126;DHT22;40360;52.992;6.796;2022-12-07T14:35:55;4.10;99.90
54126;DHT22;40360;52.992;6.796;2022-12-07T14:38:24;4.10;99.90
54126;DHT22;40360;52.992;6.796;2022-12-07T14:40:53;4.00;99.90
54126;DHT22;40360;52.992;6.796;2022-12-07T14:43:19;4.10;99.90
54126;DHT22;40360;52.992;6.796;2022-12-07T14:45:45;4.00;99.90
54126;DHT22;40360;52.992;6.796;2022-12-07T14:48:12;3.90;99.90
54126;DHT22;40360;52.992;6.796;2022-12-07T14:50:42;3.80;99.90
54126;DHT22;40360;52.992;6.796;2022-12-07T14:53:17;3.70;99.90
54126;DHT22;40360;52.992;6.796;2022-12-07T14:55:43;3.70;99.90
54126;DHT22;40360;52.992;6.796;2022-12-07T14:58:14;3.60;99.90
54126;DHT22;40360;52.992;6.796;2022-12-07T15:00:40;3.50;99.90
54126;DHT22;40360;52.992;6.796;2022-12-07T15:03:05;3.50;99.90
54126;DHT22;40360;52.992;6.796;2022-12-07T15:05:31;3.40;99.90
54126;DHT22;40360;52.992;6.796;2022-12-07T15:07:58;3.40;99.90
54126;DHT22;40360;52.992;6.796;2022-12-07T15:10:26;3.40;99.90
54126;DHT22;40360;52.992;6.796;2022-12-07T15:12:57;3.40;99.90
54126;DHT22;40360;52.992;6.796;2022-12-07T15:15:47;3.40;99.90
54126;DHT22;40360;52.992;6.796;2022-12-07T15:18:14;3.50;99.90
54126;DHT22;40360;52.992;6.796;2022-12-07T15:20:40;3.50;99.90
54126;DHT22;40360;52.992;6.796;2022-12-07T15:23:05;3.60;99.90
54126;DHT22;40360;52.992;6.796;2022-12-07T15:25:31;3.60;99.90
54126;DHT22;40360;52.992;6.796;2022-12-07T15:27:57;3.60;99.90
54126;DHT22;40360;52.992;6.796;2022-12-07T15:30:23;3.70;99.90
54126;DHT22;40360;52.992;6.796;2022-12-07T15:32:50;3.70;99.90
54126;DHT22;40360;52.992;6.796;2022-12-07T15:35:16;3.70;99.90
54126;DHT22;40360;52.992;6.796;2022-12-07T15:37:41;3.60;99.90
54126;DHT22;40360;52.992;6.796;2022-12-07T15:40:08;3.60;99.90
54126;DHT22;40360;52.992;6.796;2022-12-07T15:42:35;3.60;99.90
54126;DHT22;40360;52.992;6.796;2022-12-07T15:45:05;3.60;99.90
54126;DHT22;40360;52.992;6.796;2022-12-07T15:47:37;3.60;99.90
54126;DHT22;40360;52.992;6.796;2022-12-07T15:50:06;3.50;99.90
54126;DHT22;40360;52.992;6.796;2022-12-07T15:52:32;3.50;99.90
54126;DHT22;40360;52.992;6.796;2022-12-07T15:54:58;3.40;99.90
54126;DHT22;40360;52.992;6.796;2022-12-07T15:57:26;3.40;99.90
54126;DHT22;40360;52.992;6.796;2022-12-07T15:59:52;3.40;99.90
54126;DHT22;40360;52.992;6.796;2022-12-07T16:02:17;3.30;99.90
54126;DHT22;40360;52.992;6.796;2022-12-07T16:04:43;3.30;99.90
54126;DHT22;40360;52.992;6.796;2022-12-07T16:07:09;3.30;99.90
54126;DHT22;40360;52.992;6.796;2022-12-07T16:09:37;3.20;99.90
54126;DHT22;40360;52.992;6.796;2022-12-07T16:12:03;3.20;99.90
54126;DHT22;40360;52.992;6.796;2022-12-07T16:14:29;3.20;99.90
54126;DHT22;40360;52.992;6.796;2022-12-07T16:16:57;3.20;99.90
54126;DHT22;40360;52.992;6.796;2022-12-07T16:19:23;3.20;99.90
54126;DHT22;40360;52.992;6.796;2022-12-07T16:21:49;3.10;99.90
54126;DHT22;40360;52.992;6.796;2022-12-07T16:24:14;3.10;99.90
54126;DHT22;40360;52.992;6.796;2022-12-07T16:26:42;3.10;99.90
54126;DHT22;40360;52.992;6.796;2022-12-07T16:29:11;3.10;99.90
54126;DHT22;40360;52.992;6.796;2022-12-07T16:31:36;3.10;99.90
54126;DHT22;40360;52.992;6.796;2022-12-07T16:34:02;3.10;99.90
54126;DHT22;40360;52.992;6.796;2022-12-07T16:36:27;3.10;99.90
54126;DHT22;40360;52.992;6.796;2022-12-07T16:38:53;3.10;99.90
54126;DHT22;40360;52.992;6.796;2022-12-07T16:41:19;3.10;99.90
54126;DHT22;40360;52.992;6.796;2022-12-07T16:43:45;3.10;99.90
54126;DHT22;40360;52.992;6.796;2022-12-07T16:46:11;3.10;99.90
54126;DHT22;40360;52.992;6.796;2022-12-07T16:48:37;3.20;99.90
54126;DHT22;40360;52.992;6.796;2022-12-07T16:51:05;3.20;99.90
54126;DHT22;40360;52.992;6.796;2022-12-07T16:53:31;3.20;99.90
54126;DHT22;40360;52.992;6.796;2022-12-07T16:55:57;3.20;99.90
54126;DHT22;40360;52.992;6.796;2022-12-07T16:58:23;3.20;99.90
54126;DHT22;40360;52.992;6.796;2022-12-07T17:00:48;3.20;99.90
54126;DHT22;40360;52.992;6.796;2022-12-07T17:03:14;3.30;99.90
54126;DHT22;40360;52.992;6.796;2022-12-07T17:05:43;3.20;99.90
54126;DHT22;40360;52.992;6.796;2022-12-07T17:08:11;3.30;99.90
54126;DHT22;40360;52.992;6.796;2022-12-07T17:10:39;3.30;99.90
54126;DHT22;40360;52.992;6.796;2022-12-07T17:13:06;3.30;99.90
54126;DHT22;40360;52.992;6.796;2022-12-07T17:16:01;3.30;99.90
54126;DHT22;40360;52.992;6.796;2022-12-07T17:18:29;3.30;99.90
54126;DHT22;40360;52.992;6.796;2022-12-07T17:20:55;3.30;99.90
54126;DHT22;40360;52.992;6.796;2022-12-07T17:23:21;3.30;99.90
54126;DHT22;40360;52.992;6.796;2022-12-07T17:25:47;3.30;99.90
54126;DHT22;40360;52.992;6.796;2022-12-07T17:28:33;3.30;99.90
54126;DHT22;40360;52.992;6.796;2022-12-07T17:30:59;3.30;99.90
54126;DHT22;40360;52.992;6.796;2022-12-07T17:33:24;3.30;99.90
54126;DHT22;40360;52.992;6.796;2022-12-07T17:35:50;3.30;99.90
54126;DHT22;40360;52.992;6.796;2022-12-07T17:38:16;3.30;99.90
54126;DHT22;40360;52.992;6.796;2022-12-07T17:40:41;3.30;99.90
54126;DHT22;40360;52.992;6.796;2022-12-07T17:43:07;3.30;99.90
54126;DHT22;40360;52.992;6.796;2022-12-07T17:45:33;3.30;99.90
54126;DHT22;40360;52.992;6.796;2022-12-07T17:47:58;3.30;99.90
54126;DHT22;40360;52.992;6.796;2022-12-07T17:50:24;3.30;99.90
54126;DHT22;40360;52.992;6.796;2022-12-07T17:53:11;3.30;99.90
54126;DHT22;40360;52.992;6.796;2022-12-07T17:55:38;3.30;99.90